sensor_id;sensor_type;location;lat;lon;timestamp;pressure;altitude;pressure_sealevel;temperature;humidity
41102;BME280;26845;50.190;19.178;2023-06-26T00:01:51;98726.02;;;15.89;67.27
41102;BME280;26845;50.190;19.178;2023-06-26T00:04:56;98729.92;;;15.83;67.50
41102;BME280;26845;50.190;19.178;2023-06-26T00:07:42;98726.91;;;15.80;67.44
41102;BME280;26845;50.190;19.178;2023-06-26T00:10:36;98725.20;;;15.73;67.42
41102;BME280;26845;50.190;19.178;2023-06-26T00:13:22;98726.06;;;15.65;67.69
41102;BME280;26845;50.190;19.178;2023-06-26T00:16:27;98726.31;;;15.59;68.01
41102;BME280;26845;50.190;19.178;2023-06-26T00:19:33;98726.05;;;15.50;68.23
41102;BME280;26845;50.190;19.178;2023-06-26T00:22:39;98724.83;;;15.42;68.40
41102;BME280;26845;50.190;19.178;2023-06-26T00:25:45;98726.20;;;15.27;68.36
41102;BME280;26845;50.190;19.178;2023-06-26T00:28:51;98723.33;;;15.18;68.84
41102;BME280;26845;50.190;19.178;2023-06-26T00:31:56;98725.86;;;15.12;68.81
41102;BME280;26845;50.190;19.178;2023-06-26T00:34:47;98725.81;;;15.06;68.78
41102;BME280;26845;50.190;19.178;2023-06-26T00:37:53;98724.20;;;15.03;69.08
41102;BME280;26845;50.190;19.178;2023-06-26T00:40:59;98724.79;;;15.04;69.28
41102;BME280;26845;50.190;19.178;2023-06-26T00:44:05;98725.98;;;14.99;69.32
41102;BME280;26845;50.190;19.178;2023-06-26T00:47:12;98725.52;;;14.95;69.55
41102;BME280;26845;50.190;19.178;2023-06-26T00:50:17;98721.91;;;14.94;69.71
41102;BME280;26845;50.190;19.178;2023-06-26T00:53:23;98719.97;;;14.94;69.78
41102;BME280;26845;50.190;19.178;2023-06-26T00:56:29;98723.81;;;14.87;69.83
41102;BME280;26845;50.190;19.178;2023-06-26T00:59:18;98720.20;;;14.83;69.98
41102;BME280;26845;50.190;19.178;2023-06-26T01:02:24;98720.00;;;14.80;70.15
41102;BME280;26845;50.190;19.178;2023-06-26T01:05:38;98716.55;;;14.74;70.10
41102;BME280;26845;50.190;19.178;2023-06-26T01:08:44;98713.70;;;14.67;70.33
41102;BME280;26845;50.190;19.178;2023-06-26T01:11:49;98713.08;;;14.60;70.35
41102;BME280;26845;50.190;19.178;2023-06-26T01:14:55;98711.34;;;14.59;70.51
41102;BME280;26845;50.190;19.178;2023-06-26T01:18:01;98707.02;;;14.54;70.50
41102;BME280;26845;50.190;19.178;2023-06-26T01:21:07;98706.23;;;14.51;70.45
41102;BME280;26845;50.190;19.178;2023-06-26T01:24:15;98711.75;;;14.47;70.63
41102;BME280;26845;50.190;19.178;2023-06-26T01:27:18;98710.60;;;14.46;70.90
41102;BME280;26845;50.190;19.178;2023-06-26T01:30:04;98712.51;;;14.46;70.85
41102;BME280;26845;50.190;19.178;2023-06-26T01:33:13;98712.70;;;14.47;71.05
41102;BME280;26845;50.190;19.178;2023-06-26T01:36:09;98709.03;;;14.40;70.94
41102;BME280;26845;50.190;19.178;2023-06-26T01:39:15;98705.98;;;14.30;71.09
41102;BME280;26845;50.190;19.178;2023-06-26T01:42:20;98704.04;;;14.24;71.20
41102;BME280;26845;50.190;19.178;2023-06-26T01:45:27;98702.23;;;14.17;71.48
41102;BME280;26845;50.190;19.178;2023-06-26T01:48:40;98698.83;;;14.12;71.47
41102;BME280;26845;50.190;19.178;2023-06-26T01:51:51;98698.79;;;14.06;71.68
41102;BME280;26845;50.190;19.178;2023-06-26T01:55:03;98697.98;;;14.00;71.78
41102;BME280;26845;50.190;19.178;2023-06-26T01:58:05;98698.92;;;13.95;71.90
41102;BME280;26845;50.190;19.178;2023-06-26T02:01:11;98697.39;;;13.90;71.88
41102;BME280;26845;50.190;19.178;2023-06-26T02:04:17;98699.36;;;13.85;71.92
41102;BME280;26845;50.190;19.178;2023-06-26T02:07:23;98696.66;;;13.83;72.23
41102;BME280;26845;50.190;19.178;2023-06-26T02:10:28;98695.77;;;13.82;72.30
41102;BME280;26845;50.190;19.178;2023-06-26T02:13:34;98698.23;;;13.77;72.30
41102;BME280;26845;50.190;19.178;2023-06-26T02:16:40;98694.42;;;13.73;72.49
41102;BME280;26845;50.190;19.178;2023-06-26T02:19:46;98691.89;;;13.69;72.56
41102;BME280;26845;50.190;19.178;2023-06-26T02:22:52;98688.14;;;13.65;72.62
41102;BME280;26845;50.190;19.178;2023-06-26T02:26:00;98684.54;;;13.65;72.80
41102;BME280;26845;50.190;19.178;2023-06-26T02:29:03;98689.27;;;13.65;72.96
41102;BME280;26845;50.190;19.178;2023-06-26T02:32:09;98693.36;;;13.66;72.73
41102;BME280;26845;50.190;19.178;2023-06-26T02:35:15;98693.02;;;13.63;72.84
41102;BME280;26845;50.190;19.178;2023-06-26T02:38:20;98693.42;;;13.62;73.05
41102;BME280;26845;50.190;19.178;2023-06-26T02:41:26;98699.83;;;13.62;73.14
41102;BME280;26845;50.190;19.178;2023-06-26T02:44:32;98698.08;;;13.59;73.03
41102;BME280;26845;50.190;19.178;2023-06-26T02:47:38;98696.81;;;13.52;73.18
41102;BME280;26845;50.190;19.178;2023-06-26T02:50:44;98695.50;;;13.47;73.25
41102;BME280;26845;50.190;19.178;2023-06-26T02:53:50;98695.23;;;13.49;73.43
41102;BME280;26845;50.190;19.178;2023-06-26T02:56:55;98699.22;;;13.46;73.49
41102;BME280;26845;50.190;19.178;2023-06-26T03:00:01;98699.52;;;13.46;73.54
41102;BME280;26845;50.190;19.178;2023-06-26T03:03:07;98703.86;;;13.45;73.42
41102;BME280;26845;50.190;19.178;2023-06-26T03:06:14;98704.52;;;13.44;73.46
41102;BME280;26845;50.190;19.178;2023-06-26T03:09:19;98702.98;;;13.39;73.43
41102;BME280;26845;50.190;19.178;2023-06-26T03:12:25;98706.29;;;13.34;73.51
41102;BME280;26845;50.190;19.178;2023-06-26T03:15:31;98702.76;;;13.33;73.69
41102;BME280;26845;50.190;19.178;2023-06-26T03:18:37;98699.54;;;13.38;74.03
41102;BME280;26845;50.190;19.178;2023-06-26T03:21:44;98702.14;;;13.40;73.94
41102;BME280;26845;50.190;19.178;2023-06-26T03:24:50;98701.94;;;13.35;73.85
41102;BME280;26845;50.190;19.178;2023-06-26T03:27:56;98700.07;;;13.36;74.05
41102;BME280;26845;50.190;19.178;2023-06-26T03:30:49;98702.66;;;13.37;74.24
41102;BME280;26845;50.190;19.178;2023-06-26T03:33:55;98706.46;;;13.38;74.32
41102;BME280;26845;50.190;19.178;2023-06-26T03:37:01;98706.66;;;13.39;74.45
41102;BME280;26845;50.190;19.178;2023-06-26T03:40:08;98706.58;;;13.41;74.66
41102;BME280;26845;50.190;19.178;2023-06-26T03:42:53;98708.01;;;13.43;74.66
41102;BME280;26845;50.190;19.178;2023-06-26T03:45:59;98707.95;;;13.47;74.83
41102;BME280;26845;50.190;19.178;2023-06-26T03:49:05;98709.05;;;13.53;74.90
41102;BME280;26845;50.190;19.178;2023-06-26T03:52:13;98705.77;;;13.59;75.15
41102;BME280;26845;50.190;19.178;2023-06-26T03:55:19;98709.80;;;13.64;75.07
41102;BME280;26845;50.190;19.178;2023-06-26T03:58:25;98709.98;;;13.67;75.13
41102;BME280;26845;50.190;19.178;2023-06-26T04:01:31;98710.65;;;13.70;75.39
41102;BME280;26845;50.190;19.178;2023-06-26T04:04:37;98714.91;;;13.77;75.39
41102;BME280;26845;50.190;19.178;2023-06-26T04:07:43;98713.56;;;13.85;75.55
41102;BME280;26845;50.190;19.178;2023-06-26T04:10:49;98708.75;;;13.91;75.67
41102;BME280;26845;50.190;19.178;2023-06-26T04:13:55;98704.96;;;13.99;75.76
41102;BME280;26845;50.190;19.178;2023-06-26T04:17:00;98705.34;;;14.09;75.73
41102;BME280;26845;50.190;19.178;2023-06-26T04:20:06;98702.89;;;14.18;75.85
41102;BME280;26845;50.190;19.178;2023-06-26T04:23:12;98705.08;;;14.27;75.90
41102;BME280;26845;50.190;19.178;2023-06-26T04:26:17;98707.05;;;14.36;76.26
41102;BME280;26845;50.190;19.178;2023-06-26T04:29:24;98703.45;;;14.47;76.35
41102;BME280;26845;50.190;19.178;2023-06-26T04:32:29;98705.25;;;14.63;76.72
41102;BME280;26845;50.190;19.178;2023-06-26T04:35:35;98705.77;;;14.78;76.44
41102;BME280;26845;50.190;19.178;2023-06-26T04:38:27;98703.90;;;14.92;76.52
41102;BME280;26845;50.190;19.178;2023-06-26T04:41:33;98703.27;;;15.06;76.54
41102;BME280;26845;50.190;19.178;2023-06-26T04:44:39;98700.17;;;15.22;76.89
41102;BME280;26845;50.190;19.178;2023-06-26T04:47:44;98698.33;;;15.39;76.96
41102;BME280;26845;50.190;19.178;2023-06-26T04:50:50;98697.48;;;15.52;76.96
41102;BME280;26845;50.190;19.178;2023-06-26T04:53:56;98700.23;;;15.62;77.02
41102;BME280;26845;50.190;19.178;2023-06-26T04:56:41;98701.02;;;15.73;77.15
41102;BME280;26845;50.190;19.178;2023-06-26T04:59:47;98702.73;;;15.77;76.98
41102;BME280;26845;50.190;19.178;2023-06-26T05:02:52;98705.19;;;15.86;77.20
41102;BME280;26845;50.190;19.178;2023-06-26T05:05:40;98700.01;;;16.01;77.28
41102;BME280;26845;50.190;19.178;2023-06-26T05:08:46;98701.41;;;16.13;77.37
41102;BME280;26845;50.190;19.178;2023-06-26T05:11:49;98702.67;;;16.21;77.46
41102;BME280;26845;50.190;19.178;2023-06-26T05:14:22;98702.85;;;16.36;77.73
41102;BME280;26845;50.190;19.178;2023-06-26T05:16:52;98703.65;;;16.50;77.77
41102;BME280;26845;50.190;19.178;2023-06-26T05:19:18;98700.84;;;16.59;77.75
41102;BME280;26845;50.190;19.178;2023-06-26T05:22:05;98701.17;;;16.68;77.66
41102;BME280;26845;50.190;19.178;2023-06-26T05:24:39;98697.92;;;16.78;77.64
41102;BME280;26845;50.190;19.178;2023-06-26T05:27:44;98697.90;;;16.96;77.63
41102;BME280;26845;50.190;19.178;2023-06-26T05:30:44;98698.83;;;17.10;77.77
41102;BME280;26845;50.190;19.178;2023-06-26T05:33:13;98701.39;;;17.19;77.33
41102;BME280;26845;50.190;19.178;2023-06-26T05:36:12;98696.02;;;17.33;77.39
41102;BME280;26845;50.190;19.178;2023-06-26T05:39:18;98697.82;;;17.44;77.16
41102;BME280;26845;50.190;19.178;2023-06-26T05:42:04;98698.13;;;17.57;77.15
41102;BME280;26845;50.190;19.178;2023-06-26T05:45:10;98697.67;;;17.69;76.56
41102;BME280;26845;50.190;19.178;2023-06-26T05:47:57;98698.24;;;17.83;76.70
41102;BME280;26845;50.190;19.178;2023-06-26T05:51:03;98692.29;;;18.01;76.23
41102;BME280;26845;50.190;19.178;2023-06-26T05:54:09;98691.10;;;18.09;76.49
41102;BME280;26845;50.190;19.178;2023-06-26T05:57:14;98688.27;;;18.31;76.48
41102;BME280;26845;50.190;19.178;2023-06-26T06:00:20;98689.27;;;18.37;75.68
41102;BME280;26845;50.190;19.178;2023-06-26T06:03:25;98687.16;;;18.45;75.77
41102;BME280;26845;50.190;19.178;2023-06-26T06:06:31;98688.94;;;18.58;75.41
41102;BME280;26845;50.190;19.178;2023-06-26T06:09:20;98690.15;;;18.62;75.53
41102;BME280;26845;50.190;19.178;2023-06-26T06:11:47;98687.73;;;18.79;75.76
41102;BME280;26845;50.190;19.178;2023-06-26T06:14:21;98686.45;;;19.01;75.33
41102;BME280;26845;50.190;19.178;2023-06-26T06:17:04;98688.02;;;19.13;75.13
41102;BME280;26845;50.190;19.178;2023-06-26T06:19:31;98689.68;;;19.26;74.90
41102;BME280;26845;50.190;19.178;2023-06-26T06:21:59;98685.77;;;19.38;74.91
41102;BME280;26845;50.190;19.178;2023-06-26T06:24:29;98690.38;;;19.50;74.35
41102;BME280;26845;50.190;19.178;2023-06-26T06:26:56;98688.63;;;19.67;74.75
41102;BME280;26845;50.190;19.178;2023-06-26T06:29:22;98689.20;;;19.89;74.57
41102;BME280;26845;50.190;19.178;2023-06-26T06:31:49;98694.39;;;20.11;74.21
41102;BME280;26845;50.190;19.178;2023-06-26T06:34:34;98689.91;;;20.26;73.52
41102;BME280;26845;50.190;19.178;2023-06-26T06:37:39;98691.49;;;20.37;73.34
41102;BME280;26845;50.190;19.178;2023-06-26T06:40:45;98690.70;;;20.57;72.72
41102;BME280;26845;50.190;19.178;2023-06-26T06:43:12;98683.02;;;20.76;72.64
41102;BME280;26845;50.190;19.178;2023-06-26T06:45:38;98687.25;;;20.97;72.48
41102;BME280;26845;50.190;19.178;2023-06-26T06:48:24;98686.08;;;21.11;72.59
41102;BME280;26845;50.190;19.178;2023-06-26T06:50:50;98686.88;;;21.20;71.91
41102;BME280;26845;50.190;19.178;2023-06-26T06:53:36;98688.16;;;21.36;71.55
41102;BME280;26845;50.190;19.178;2023-06-26T06:56:02;98688.99;;;21.39;71.39
41102;BME280;26845;50.190;19.178;2023-06-26T06:58:28;98691.14;;;21.46;71.43
41102;BME280;26845;50.190;19.178;2023-06-26T07:00:56;98691.17;;;21.60;71.20
41102;BME280;26845;50.190;19.178;2023-06-26T07:03:22;98689.76;;;21.67;69.99
41102;BME280;26845;50.190;19.178;2023-06-26T07:05:48;98690.77;;;21.62;69.76
41102;BME280;26845;50.190;19.178;2023-06-26T07:08:14;98688.30;;;21.64;69.55
41102;BME280;26845;50.190;19.178;2023-06-26T07:10:41;98688.36;;;21.65;69.41
41102;BME280;26845;50.190;19.178;2023-06-26T07:13:07;98691.45;;;21.65;69.02
41102;BME280;26845;50.190;19.178;2023-06-26T07:15:33;98684.82;;;21.79;68.98
41102;BME280;26845;50.190;19.178;2023-06-26T07:17:59;98683.90;;;21.88;68.41
41102;BME280;26845;50.190;19.178;2023-06-26T07:20:26;98683.52;;;21.93;67.44
41102;BME280;26845;50.190;19.178;2023-06-26T07:22:52;98684.27;;;21.97;68.02
41102;BME280;26845;50.190;19.178;2023-06-26T07:25:18;98683.52;;;22.22;67.96
41102;BME280;26845;50.190;19.178;2023-06-26T07:27:44;98681.45;;;22.45;67.39
41102;BME280;26845;50.190;19.178;2023-06-26T07:30:10;98681.88;;;22.58;66.97
41102;BME280;26845;50.190;19.178;2023-06-26T07:32:37;98681.35;;;22.71;66.99
41102;BME280;26845;50.190;19.178;2023-06-26T07:35:03;98679.60;;;22.90;67.40
41102;BME280;26845;50.190;19.178;2023-06-26T07:37:29;98683.55;;;23.16;67.48
41102;BME280;26845;50.190;19.178;2023-06-26T07:39:55;98685.40;;;23.30;66.05
41102;BME280;26845;50.190;19.178;2023-06-26T07:42:21;98682.80;;;23.43;66.05
41102;BME280;26845;50.190;19.178;2023-06-26T07:44:48;98686.04;;;23.45;64.58
41102;BME280;26845;50.190;19.178;2023-06-26T07:47:14;98683.11;;;23.56;66.03
41102;BME280;26845;50.190;19.178;2023-06-26T07:49:42;98683.42;;;23.85;65.63
41102;BME280;26845;50.190;19.178;2023-06-26T07:52:08;98679.83;;;24.19;66.10
41102;BME280;26845;50.190;19.178;2023-06-26T07:54:36;98684.04;;;24.40;61.37
41102;BME280;26845;50.190;19.178;2023-06-26T07:57:03;98685.35;;;24.17;61.50
41102;BME280;26845;50.190;19.178;2023-06-26T07:59:30;98680.80;;;24.19;63.28
41102;BME280;26845;50.190;19.178;2023-06-26T08:02:15;98678.52;;;24.40;63.42
41102;BME280;26845;50.190;19.178;2023-06-26T08:05:03;98680.09;;;24.55;62.21
41102;BME280;26845;50.190;19.178;2023-06-26T08:07:34;98679.73;;;24.63;62.37
41102;BME280;26845;50.190;19.178;2023-06-26T08:10:21;98678.54;;;24.73;59.57
41102;BME280;26845;50.190;19.178;2023-06-26T08:13:10;98680.59;;;24.54;58.85
41102;BME280;26845;50.190;19.178;2023-06-26T08:15:54;98677.45;;;24.44;60.85
41102;BME280;26845;50.190;19.178;2023-06-26T08:18:40;98676.13;;;24.93;61.82
41102;BME280;26845;50.190;19.178;2023-06-26T08:21:43;98669.81;;;25.53;61.06
41102;BME280;26845;50.190;19.178;2023-06-26T08:24:09;98667.07;;;25.85;60.75
41102;BME280;26845;50.190;19.178;2023-06-26T08:26:38;98664.70;;;26.08;60.30
41102;BME280;26845;50.190;19.178;2023-06-26T08:29:12;98666.94;;;26.26;57.61
41102;BME280;26845;50.190;19.178;2023-06-26T08:32:33;98664.55;;;26.01;57.56
41102;BME280;26845;50.190;19.178;2023-06-26T08:35:31;98666.67;;;25.84;53.67
41102;BME280;26845;50.190;19.178;2023-06-26T08:38:37;98661.11;;;25.79;56.03
41102;BME280;26845;50.190;19.178;2023-06-26T08:41:55;98658.63;;;26.26;57.51
41102;BME280;26845;50.190;19.178;2023-06-26T08:45:01;98662.54;;;26.59;56.58
41102;BME280;26845;50.190;19.178;2023-06-26T08:48:08;98665.71;;;26.32;54.90
41102;BME280;26845;50.190;19.178;2023-06-26T08:51:13;98662.55;;;25.90;53.30
41102;BME280;26845;50.190;19.178;2023-06-26T08:54:21;98664.55;;;25.33;53.60
41102;BME280;26845;50.190;19.178;2023-06-26T08:57:26;98665.74;;;25.03;53.63
41102;BME280;26845;50.190;19.178;2023-06-26T09:00:31;98663.79;;;24.67;54.29
41102;BME280;26845;50.190;19.178;2023-06-26T09:03:05;98663.15;;;24.67;55.29
41102;BME280;26845;50.190;19.178;2023-06-26T09:05:33;98658.20;;;24.90;55.91
41102;BME280;26845;50.190;19.178;2023-06-26T09:08:26;98657.80;;;25.50;54.84
41102;BME280;26845;50.190;19.178;2023-06-26T09:11:31;98651.65;;;25.97;54.46
41102;BME280;26845;50.190;19.178;2023-06-26T09:14:38;98651.58;;;26.36;54.08
41102;BME280;26845;50.190;19.178;2023-06-26T09:17:43;98657.70;;;26.54;53.48
41102;BME280;26845;50.190;19.178;2023-06-26T09:20:17;98655.27;;;26.40;52.95
41102;BME280;26845;50.190;19.178;2023-06-26T09:22:50;98657.20;;;26.10;52.19
41102;BME280;26845;50.190;19.178;2023-06-26T09:25:24;98653.45;;;25.79;52.31
41102;BME280;26845;50.190;19.178;2023-06-26T09:27:58;98655.77;;;25.68;52.44
41102;BME280;26845;50.190;19.178;2023-06-26T09:30:32;98656.69;;;25.57;50.57
41102;BME280;26845;50.190;19.178;2023-06-26T09:33:15;98650.77;;;25.63;51.93
41102;BME280;26845;50.190;19.178;2023-06-26T09:35:48;98646.55;;;26.02;51.84
41102;BME280;26845;50.190;19.178;2023-06-26T09:38:22;98642.91;;;26.40;51.23
41102;BME280;26845;50.190;19.178;2023-06-26T09:40:56;98638.74;;;26.76;52.05
41102;BME280;26845;50.190;19.178;2023-06-26T09:44:02;98639.27;;;27.26;51.95
41102;BME280;26845;50.190;19.178;2023-06-26T09:47:23;98642.56;;;27.62;50.61
41102;BME280;26845;50.190;19.178;2023-06-26T09:49:56;98642.41;;;27.47;47.09
41102;BME280;26845;50.190;19.178;2023-06-26T09:53:07;98636.16;;;27.17;47.01
41102;BME280;26845;50.190;19.178;2023-06-26T09:56:05;98633.89;;;27.05;46.96
41102;BME280;26845;50.190;19.178;2023-06-26T09:58:38;98634.25;;;27.08;47.76
41102;BME280;26845;50.190;19.178;2023-06-26T10:01:12;98631.05;;;27.22;49.61
41102;BME280;26845;50.190;19.178;2023-06-26T10:03:45;98636.17;;;27.63;49.27
41102;BME280;26845;50.190;19.178;2023-06-26T10:06:21;98634.66;;;27.88;47.34
41102;BME280;26845;50.190;19.178;2023-06-26T10:08:53;98630.63;;;27.95;47.30
41102;BME280;26845;50.190;19.178;2023-06-26T10:11:29;98624.48;;;27.92;44.98
41102;BME280;26845;50.190;19.178;2023-06-26T10:14:01;98628.15;;;27.78;45.73
41102;BME280;26845;50.190;19.178;2023-06-26T10:16:29;98624.89;;;27.65;45.58
41102;BME280;26845;50.190;19.178;2023-06-26T10:18:59;98623.98;;;27.48;44.97
41102;BME280;26845;50.190;19.178;2023-06-26T10:21:26;98619.20;;;27.08;44.73
41102;BME280;26845;50.190;19.178;2023-06-26T10:23:53;98617.67;;;26.91;45.67
41102;BME280;26845;50.190;19.178;2023-06-26T10:26:21;98614.58;;;27.00;46.62
41102;BME280;26845;50.190;19.178;2023-06-26T10:28:48;98611.36;;;27.13;47.14
41102;BME280;26845;50.190;19.178;2023-06-26T10:31:18;98610.11;;;27.15;46.30
41102;BME280;26845;50.190;19.178;2023-06-26T10:33:45;98606.61;;;27.10;45.60
41102;BME280;26845;50.190;19.178;2023-06-26T10:36:13;98602.55;;;26.78;45.48
41102;BME280;26845;50.190;19.178;2023-06-26T10:39:07;98603.23;;;26.61;45.97
41102;BME280;26845;50.190;19.178;2023-06-26T10:41:40;98597.35;;;26.43;44.92
41102;BME280;26845;50.190;19.178;2023-06-26T10:44:11;98597.84;;;26.32;45.51
41102;BME280;26845;50.190;19.178;2023-06-26T10:46:50;98592.63;;;26.37;45.58
41102;BME280;26845;50.190;19.178;2023-06-26T10:49:18;98596.32;;;26.76;46.39
41102;BME280;26845;50.190;19.178;2023-06-26T10:51:47;98589.94;;;27.18;45.86
41102;BME280;26845;50.190;19.178;2023-06-26T10:54:18;98592.84;;;27.65;46.02
41102;BME280;26845;50.190;19.178;2023-06-26T10:56:46;98589.77;;;28.05;45.74
41102;BME280;26845;50.190;19.178;2023-06-26T10:59:16;98589.49;;;28.48;46.15
41102;BME280;26845;50.190;19.178;2023-06-26T11:01:42;98593.02;;;28.69;43.60
41102;BME280;26845;50.190;19.178;2023-06-26T11:04:08;98588.11;;;28.63;44.35
41102;BME280;26845;50.190;19.178;2023-06-26T11:06:36;98588.44;;;28.66;43.11
41102;BME280;26845;50.190;19.178;2023-06-26T11:11:55;98581.05;;;28.35;41.64
41102;BME280;26845;50.190;19.178;2023-06-26T11:14:24;98576.85;;;28.29;42.49
41102;BME280;26845;50.190;19.178;2023-06-26T11:16:50;98576.80;;;28.58;43.31
41102;BME280;26845;50.190;19.178;2023-06-26T11:19:17;98573.42;;;28.82;41.61
41102;BME280;26845;50.190;19.178;2023-06-26T11:21:43;98572.55;;;28.82;42.65
41102;BME280;26845;50.190;19.178;2023-06-26T11:24:10;98568.86;;;29.02;43.22
41102;BME280;26845;50.190;19.178;2023-06-26T11:26:40;98571.52;;;29.45;43.46
41102;BME280;26845;50.190;19.178;2023-06-26T11:29:28;98563.77;;;29.77;42.21
41102;BME280;26845;50.190;19.178;2023-06-26T11:31:58;98567.20;;;29.63;39.53
41102;BME280;26845;50.190;19.178;2023-06-26T11:34:25;98565.58;;;29.56;41.34
41102;BME280;26845;50.190;19.178;2023-06-26T11:36:56;98566.94;;;29.54;39.89
41102;BME280;26845;50.190;19.178;2023-06-26T11:39:26;98567.09;;;29.33;40.79
41102;BME280;26845;50.190;19.178;2023-06-26T11:41:54;98563.76;;;29.14;39.11
41102;BME280;26845;50.190;19.178;2023-06-26T11:44:20;98562.39;;;29.10;40.28
41102;BME280;26845;50.190;19.178;2023-06-26T11:46:47;98562.61;;;29.17;40.56
41102;BME280;26845;50.190;19.178;2023-06-26T11:49:15;98562.45;;;29.35;39.60
41102;BME280;26845;50.190;19.178;2023-06-26T11:51:48;98564.80;;;29.36;40.38
41102;BME280;26845;50.190;19.178;2023-06-26T11:54:14;98555.52;;;29.61;40.79
41102;BME280;26845;50.190;19.178;2023-06-26T11:57:20;98553.11;;;29.95;39.86
41102;BME280;26845;50.190;19.178;2023-06-26T12:00:25;98549.42;;;30.18;40.15
41102;BME280;26845;50.190;19.178;2023-06-26T12:03:15;98549.52;;;30.42;39.84
41102;BME280;26845;50.190;19.178;2023-06-26T12:05:44;98550.30;;;30.27;38.97
41102;BME280;26845;50.190;19.178;2023-06-26T12:08:11;98547.74;;;30.36;40.43
41102;BME280;26845;50.190;19.178;2023-06-26T12:10:39;98543.18;;;30.63;40.58
41102;BME280;26845;50.190;19.178;2023-06-26T12:13:16;98538.92;;;31.03;40.26
41102;BME280;26845;50.190;19.178;2023-06-26T12:16:12;98536.73;;;31.14;38.21
41102;BME280;26845;50.190;19.178;2023-06-26T12:19:23;98528.85;;;30.98;38.00
41102;BME280;26845;50.190;19.178;2023-06-26T12:27:59;98529.19;;;30.04;37.06
41102;BME280;26845;50.190;19.178;2023-06-26T12:31:20;98522.78;;;30.24;35.96
41102;BME280;26845;50.190;19.178;2023-06-26T12:34:34;98524.39;;;30.11;35.51
41102;BME280;26845;50.190;19.178;2023-06-26T12:37:49;98523.37;;;29.99;35.50
41102;BME280;26845;50.190;19.178;2023-06-26T12:40:26;98519.61;;;29.91;36.50
41102;BME280;26845;50.190;19.178;2023-06-26T12:43:11;98517.67;;;30.14;36.32
41102;BME280;26845;50.190;19.178;2023-06-26T12:46:17;98518.07;;;30.17;36.52
41102;BME280;26845;50.190;19.178;2023-06-26T12:48:54;98517.24;;;30.17;35.58
41102;BME280;26845;50.190;19.178;2023-06-26T12:52:14;98516.01;;;29.99;35.24
41102;BME280;26845;50.190;19.178;2023-06-26T12:55:23;98514.89;;;30.19;37.07
41102;BME280;26845;50.190;19.178;2023-06-26T12:58:01;98509.66;;;30.71;36.17
41102;BME280;26845;50.190;19.178;2023-06-26T13:01:07;98512.16;;;30.82;34.78
41102;BME280;26845;50.190;19.178;2023-06-26T13:03:41;98514.98;;;30.50;33.71
41102;BME280;26845;50.190;19.178;2023-06-26T13:06:52;98508.36;;;30.00;35.35
41102;BME280;26845;50.190;19.178;2023-06-26T13:09:32;98508.10;;;30.11;34.90
41102;BME280;26845;50.190;19.178;2023-06-26T13:12:43;98503.04;;;29.92;34.31
41102;BME280;26845;50.190;19.178;2023-06-26T13:15:52;98497.17;;;30.13;35.42
41102;BME280;26845;50.190;19.178;2023-06-26T13:18:30;98502.48;;;30.32;34.38
41102;BME280;26845;50.190;19.178;2023-06-26T13:21:10;98501.73;;;30.08;34.14
41102;BME280;26845;50.190;19.178;2023-06-26T13:24:02;98498.36;;;29.92;34.57
41102;BME280;26845;50.190;19.178;2023-06-26T13:26:42;98497.42;;;29.69;35.30
41102;BME280;26845;50.190;19.178;2023-06-26T13:29:22;98494.75;;;29.84;35.50
41102;BME280;26845;50.190;19.178;2023-06-26T13:32:28;98491.70;;;29.91;34.44
41102;BME280;26845;50.190;19.178;2023-06-26T13:35:10;98490.73;;;30.06;35.39
41102;BME280;26845;50.190;19.178;2023-06-26T13:38:16;98483.17;;;30.39;35.50
41102;BME280;26845;50.190;19.178;2023-06-26T13:40:51;98485.41;;;30.76;35.43
41102;BME280;26845;50.190;19.178;2023-06-26T13:43:56;98480.13;;;30.72;34.97
41102;BME280;26845;50.190;19.178;2023-06-26T13:47:05;98476.70;;;30.15;34.14
41102;BME280;26845;50.190;19.178;2023-06-26T13:49:51;98471.11;;;29.64;34.15
41102;BME280;26845;50.190;19.178;2023-06-26T13:52:52;98475.27;;;29.39;35.68
41102;BME280;26845;50.190;19.178;2023-06-26T13:55:40;98470.27;;;29.63;35.20
41102;BME280;26845;50.190;19.178;2023-06-26T13:58:06;98464.62;;;29.69;35.00
41102;BME280;26845;50.190;19.178;2023-06-26T14:00:38;98465.55;;;29.78;35.28
41102;BME280;26845;50.190;19.178;2023-06-26T14:03:06;98461.30;;;30.07;35.20
41102;BME280;26845;50.190;19.178;2023-06-26T14:05:35;98456.19;;;30.01;34.15
41102;BME280;26845;50.190;19.178;2023-06-26T14:08:02;98457.96;;;29.69;33.00
41102;BME280;26845;50.190;19.178;2023-06-26T14:10:47;98457.75;;;29.30;32.67
41102;BME280;26845;50.190;19.178;2023-06-26T14:13:52;98455.98;;;28.96;33.39
41102;BME280;26845;50.190;19.178;2023-06-26T14:16:18;98452.49;;;28.95;35.20
41102;BME280;26845;50.190;19.178;2023-06-26T14:18:48;98454.73;;;29.10;34.15
41102;BME280;26845;50.190;19.178;2023-06-26T14:21:14;98450.40;;;29.10;34.21
41102;BME280;26845;50.190;19.178;2023-06-26T14:23:41;98444.81;;;29.20;34.33
41102;BME280;26845;50.190;19.178;2023-06-26T14:26:07;98440.03;;;29.41;34.21
41102;BME280;26845;50.190;19.178;2023-06-26T14:28:52;98436.08;;;29.51;34.24
41102;BME280;26845;50.190;19.178;2023-06-26T14:31:55;98437.94;;;29.64;33.03
41102;BME280;26845;50.190;19.178;2023-06-26T14:35:10;98433.96;;;29.48;33.63
41102;BME280;26845;50.190;19.178;2023-06-26T14:38:20;98427.75;;;29.22;33.28
41102;BME280;26845;50.190;19.178;2023-06-26T14:41:26;98422.83;;;29.48;34.09
41102;BME280;26845;50.190;19.178;2023-06-26T14:44:32;98422.96;;;29.55;32.78
41102;BME280;26845;50.190;19.178;2023-06-26T14:47:38;98418.27;;;29.33;33.33
41102;BME280;26845;50.190;19.178;2023-06-26T14:50:44;98415.98;;;29.28;33.00
41102;BME280;26845;50.190;19.178;2023-06-26T14:54:01;98409.83;;;29.29;34.37